sensor_id;sensor_type;location;lat;lon;timestamp;P1;durP1;ratioP1;P2;durP2;ratioP2
60847;SDS011;46681;47.696;9.140;2023-04-15T00:01:22;3.77;;;2.40;;
60847;SDS011;46681;47.696;9.140;2023-04-15T00:03:50;1.53;;;1.30;;
60847;SDS011;46681;47.696;9.140;2023-04-15T00:06:17;1.93;;;1.47;;
60847;SDS011;46681;47.696;9.140;2023-04-15T00:08:44;3.03;;;1.67;;
60847;SDS011;46681;47.696;9.140;2023-04-15T00:11:12;3.03;;;1.97;;
60847;SDS011;46681;47.696;9.140;2023-04-15T00:13:39;2.57;;;1.70;;
60847;SDS011;46681;47.696;9.140;2023-04-15T00:16:07;2.27;;;1.60;;
60847;SDS011;46681;47.696;9.140;2023-04-15T00:18:36;1.70;;;1.60;;
60847;SDS011;46681;47.696;9.140;2023-04-15T00:21:04;2.07;;;1.63;;
60847;SDS011;46681;47.696;9.140;2023-04-15T00:23:30;3.23;;;1.83;;
60847;SDS011;46681;47.696;9.140;2023-04-15T00:25:56;2.30;;;1.57;;
60847;SDS011;46681;47.696;9.140;2023-04-15T00:28:23;1.97;;;1.70;;
60847;SDS011;46681;47.696;9.140;2023-04-15T00:30:50;2.57;;;1.57;;
60847;SDS011;46681;47.696;9.140;2023-04-15T00:33:17;2.23;;;1.70;;
60847;SDS011;46681;47.696;9.140;2023-04-15T00:35:45;2.33;;;1.67;;
60847;SDS011;46681;47.696;9.140;2023-04-15T00:38:12;4.40;;;1.80;;
60847;SDS011;46681;47.696;9.140;2023-04-15T00:40:39;2.73;;;1.80;;
60847;SDS011;46681;47.696;9.140;2023-04-15T00:43:09;3.70;;;1.70;;
60847;SDS011;46681;47.696;9.140;2023-04-15T00:45:41;1.70;;;1.60;;
60847;SDS011;46681;47.696;9.140;2023-04-15T00:48:07;2.70;;;2.27;;
60847;SDS011;46681;47.696;9.140;2023-04-15T00:50:37;2.20;;;2.00;;
60847;SDS011;46681;47.696;9.140;2023-04-15T00:53:04;1.67;;;1.57;;
60847;SDS011;46681;47.696;9.140;2023-04-15T00:55:30;1.90;;;1.80;;
60847;SDS011;46681;47.696;9.140;2023-04-15T00:57:59;3.13;;;2.00;;
60847;SDS011;46681;47.696;9.140;2023-04-15T01:00:27;2.90;;;1.83;;
60847;SDS011;46681;47.696;9.140;2023-04-15T01:02:57;2.20;;;1.60;;
60847;SDS011;46681;47.696;9.140;2023-04-15T01:05:24;1.77;;;1.53;;
60847;SDS011;46681;47.696;9.140;2023-04-15T01:07:51;2.77;;;1.87;;
60847;SDS011;46681;47.696;9.140;2023-04-15T01:10:18;2.53;;;1.83;;
60847;SDS011;46681;47.696;9.140;2023-04-15T01:12:48;2.53;;;2.07;;
60847;SDS011;46681;47.696;9.140;2023-04-15T01:15:19;2.57;;;1.90;;
60847;SDS011;46681;47.696;9.140;2023-04-15T01:17:50;1.80;;;1.67;;
60847;SDS011;46681;47.696;9.140;2023-04-15T01:20:17;2.43;;;1.83;;
60847;SDS011;46681;47.696;9.140;2023-04-15T01:22:48;2.87;;;1.80;;
60847;SDS011;46681;47.696;9.140;2023-04-15T01:25:18;2.30;;;2.10;;
60847;SDS011;46681;47.696;9.140;2023-04-15T01:27:56;2.03;;;1.63;;
60847;SDS011;46681;47.696;9.140;2023-04-15T01:30:23;1.77;;;1.67;;
60847;SDS011;46681;47.696;9.140;2023-04-15T01:32:50;1.97;;;1.70;;
60847;SDS011;46681;47.696;9.140;2023-04-15T01:35:17;2.20;;;2.00;;
60847;SDS011;46681;47.696;9.140;2023-04-15T01:37:46;3.40;;;1.90;;
60847;SDS011;46681;47.696;9.140;2023-04-15T01:40:13;2.40;;;1.87;;
60847;SDS011;46681;47.696;9.140;2023-04-15T01:42:40;1.80;;;1.70;;
60847;SDS011;46681;47.696;9.140;2023-04-15T01:45:09;2.23;;;2.03;;
60847;SDS011;46681;47.696;9.140;2023-04-15T01:47:36;1.80;;;1.70;;
60847;SDS011;46681;47.696;9.140;2023-04-15T01:50:01;2.00;;;1.90;;
60847;SDS011;46681;47.696;9.140;2023-04-15T01:52:28;2.27;;;1.90;;
60847;SDS011;46681;47.696;9.140;2023-04-15T01:54:55;2.50;;;1.73;;
60847;SDS011;46681;47.696;9.140;2023-04-15T01:57:22;2.10;;;1.73;;
60847;SDS011;46681;47.696;9.140;2023-04-15T01:59:50;3.10;;;2.00;;
60847;SDS011;46681;47.696;9.140;2023-04-15T02:02:27;2.90;;;2.00;;
60847;SDS011;46681;47.696;9.140;2023-04-15T02:04:55;3.00;;;2.13;;
60847;SDS011;46681;47.696;9.140;2023-04-15T02:07:21;2.40;;;2.20;;
60847;SDS011;46681;47.696;9.140;2023-04-15T02:09:48;4.50;;;2.10;;
60847;SDS011;46681;47.696;9.140;2023-04-15T02:12:16;2.77;;;2.23;;
60847;SDS011;46681;47.696;9.140;2023-04-15T02:14:42;3.90;;;2.27;;
60847;SDS011;46681;47.696;9.140;2023-04-15T02:17:10;2.43;;;2.23;;
60847;SDS011;46681;47.696;9.140;2023-04-15T02:19:36;2.57;;;2.37;;
60847;SDS011;46681;47.696;9.140;2023-04-15T02:22:01;2.93;;;2.73;;
60847;SDS011;46681;47.696;9.140;2023-04-15T02:24:27;3.43;;;2.03;;
60847;SDS011;46681;47.696;9.140;2023-04-15T02:26:54;2.03;;;1.67;;
60847;SDS011;46681;47.696;9.140;2023-04-15T02:29:19;2.03;;;1.80;;
60847;SDS011;46681;47.696;9.140;2023-04-15T02:31:45;2.00;;;1.80;;
60847;SDS011;46681;47.696;9.140;2023-04-15T02:34:10;2.23;;;1.90;;
60847;SDS011;46681;47.696;9.140;2023-04-15T02:36:36;2.30;;;2.07;;
60847;SDS011;46681;47.696;9.140;2023-04-15T02:39:02;2.50;;;1.80;;
60847;SDS011;46681;47.696;9.140;2023-04-15T02:41:28;2.37;;;2.07;;
60847;SDS011;46681;47.696;9.140;2023-04-15T02:43:53;2.80;;;2.30;;
60847;SDS011;46681;47.696;9.140;2023-04-15T02:46:19;2.63;;;2.27;;
60847;SDS011;46681;47.696;9.140;2023-04-15T02:48:44;2.20;;;2.00;;
60847;SDS011;46681;47.696;9.140;2023-04-15T02:51:13;2.30;;;2.20;;
60847;SDS011;46681;47.696;9.140;2023-04-15T02:53:44;2.00;;;1.90;;
60847;SDS011;46681;47.696;9.140;2023-04-15T02:56:10;2.13;;;2.00;;
60847;SDS011;46681;47.696;9.140;2023-04-15T02:58:36;4.13;;;2.10;;
60847;SDS011;46681;47.696;9.140;2023-04-15T03:01:01;3.67;;;2.40;;
60847;SDS011;46681;47.696;9.140;2023-04-15T03:03:27;2.80;;;1.80;;
60847;SDS011;46681;47.696;9.140;2023-04-15T03:05:53;2.87;;;2.20;;
60847;SDS011;46681;47.696;9.140;2023-04-15T03:08:18;2.07;;;1.87;;
60847;SDS011;46681;47.696;9.140;2023-04-15T03:10:44;2.23;;;2.03;;
60847;SDS011;46681;47.696;9.140;2023-04-15T03:13:09;1.77;;;1.67;;
60847;SDS011;46681;47.696;9.140;2023-04-15T03:15:35;2.80;;;2.23;;
60847;SDS011;46681;47.696;9.140;2023-04-15T03:18:00;3.17;;;2.20;;
60847;SDS011;46681;47.696;9.140;2023-04-15T03:20:26;3.93;;;2.00;;
60847;SDS011;46681;47.696;9.140;2023-04-15T03:22:51;2.40;;;2.20;;
60847;SDS011;46681;47.696;9.140;2023-04-15T03:25:17;3.23;;;2.03;;
60847;SDS011;46681;47.696;9.140;2023-04-15T03:27:42;2.00;;;1.83;;
60847;SDS011;46681;47.696;9.140;2023-04-15T03:30:08;2.40;;;2.20;;
60847;SDS011;46681;47.696;9.140;2023-04-15T03:32:34;3.23;;;2.30;;
60847;SDS011;46681;47.696;9.140;2023-04-15T03:34:59;2.80;;;2.23;;
60847;SDS011;46681;47.696;9.140;2023-04-15T03:37:25;1.87;;;1.70;;
60847;SDS011;46681;47.696;9.140;2023-04-15T03:39:51;2.27;;;2.10;;
60847;SDS011;46681;47.696;9.140;2023-04-15T03:42:17;2.40;;;2.20;;
60847;SDS011;46681;47.696;9.140;2023-04-15T03:44:42;3.17;;;2.30;;
60847;SDS011;46681;47.696;9.140;2023-04-15T03:47:08;2.57;;;2.37;;
60847;SDS011;46681;47.696;9.140;2023-04-15T03:49:33;3.63;;;2.30;;
60847;SDS011;46681;47.696;9.140;2023-04-15T03:51:59;2.13;;;2.03;;
60847;SDS011;46681;47.696;9.140;2023-04-15T03:54:25;3.50;;;2.30;;
60847;SDS011;46681;47.696;9.140;2023-04-15T03:56:50;1.93;;;1.83;;
60847;SDS011;46681;47.696;9.140;2023-04-15T03:59:18;2.43;;;2.23;;
60847;SDS011;46681;47.696;9.140;2023-04-15T04:01:43;2.60;;;2.23;;
60847;SDS011;46681;47.696;9.140;2023-04-15T04:04:09;2.53;;;2.20;;
60847;SDS011;46681;47.696;9.140;2023-04-15T04:06:34;2.60;;;2.40;;
60847;SDS011;46681;47.696;9.140;2023-04-15T04:09:00;2.30;;;1.97;;
60847;SDS011;46681;47.696;9.140;2023-04-15T04:11:29;2.70;;;2.40;;
60847;SDS011;46681;47.696;9.140;2023-04-15T04:13:55;3.30;;;2.43;;
60847;SDS011;46681;47.696;9.140;2023-04-15T04:16:20;2.47;;;2.27;;
60847;SDS011;46681;47.696;9.140;2023-04-15T04:18:46;2.80;;;2.30;;
60847;SDS011;46681;47.696;9.140;2023-04-15T04:21:12;3.43;;;2.07;;
60847;SDS011;46681;47.696;9.140;2023-04-15T04:23:37;3.23;;;2.37;;
60847;SDS011;46681;47.696;9.140;2023-04-15T04:26:06;2.90;;;2.67;;
60847;SDS011;46681;47.696;9.140;2023-04-15T04:28:32;2.20;;;2.00;;
60847;SDS011;46681;47.696;9.140;2023-04-15T04:30:57;3.53;;;2.17;;
60847;SDS011;46681;47.696;9.140;2023-04-15T04:33:23;2.77;;;2.57;;
60847;SDS011;46681;47.696;9.140;2023-04-15T04:35:49;4.30;;;2.40;;
60847;SDS011;46681;47.696;9.140;2023-04-15T04:38:16;2.23;;;2.00;;
60847;SDS011;46681;47.696;9.140;2023-04-15T04:40:42;2.33;;;2.10;;
60847;SDS011;46681;47.696;9.140;2023-04-15T04:43:09;2.50;;;2.30;;
60847;SDS011;46681;47.696;9.140;2023-04-15T04:45:35;3.77;;;2.40;;
60847;SDS011;46681;47.696;9.140;2023-04-15T04:48:02;2.27;;;2.17;;
60847;SDS011;46681;47.696;9.140;2023-04-15T04:50:27;2.30;;;2.07;;
60847;SDS011;46681;47.696;9.140;2023-04-15T04:52:53;2.67;;;2.47;;
60847;SDS011;46681;47.696;9.140;2023-04-15T04:55:18;2.53;;;2.20;;
60847;SDS011;46681;47.696;9.140;2023-04-15T04:57:44;3.50;;;2.40;;
60847;SDS011;46681;47.696;9.140;2023-04-15T05:00:09;2.80;;;2.60;;
60847;SDS011;46681;47.696;9.140;2023-04-15T05:02:35;3.70;;;2.60;;
60847;SDS011;46681;47.696;9.140;2023-04-15T05:05:03;2.23;;;2.13;;
60847;SDS011;46681;47.696;9.140;2023-04-15T05:07:29;2.50;;;2.40;;
60847;SDS011;46681;47.696;9.140;2023-04-15T05:09:54;3.73;;;2.60;;
60847;SDS011;46681;47.696;9.140;2023-04-15T05:12:20;3.17;;;2.37;;
60847;SDS011;46681;47.696;9.140;2023-04-15T05:14:45;3.47;;;2.50;;
60847;SDS011;46681;47.696;9.140;2023-04-15T05:17:11;5.67;;;2.97;;
60847;SDS011;46681;47.696;9.140;2023-04-15T05:19:36;3.43;;;2.60;;
60847;SDS011;46681;47.696;9.140;2023-04-15T05:22:02;4.93;;;3.73;;
60847;SDS011;46681;47.696;9.140;2023-04-15T05:24:27;2.50;;;2.40;;
60847;SDS011;46681;47.696;9.140;2023-04-15T05:26:53;3.07;;;2.80;;
60847;SDS011;46681;47.696;9.140;2023-04-15T05:29:18;3.47;;;3.17;;
60847;SDS011;46681;47.696;9.140;2023-04-15T05:31:44;3.53;;;3.23;;
60847;SDS011;46681;47.696;9.140;2023-04-15T05:34:09;3.40;;;3.10;;
60847;SDS011;46681;47.696;9.140;2023-04-15T05:36:35;5.40;;;3.43;;
60847;SDS011;46681;47.696;9.140;2023-04-15T05:39:01;3.40;;;3.10;;
60847;SDS011;46681;47.696;9.140;2023-04-15T05:41:26;3.97;;;3.03;;
60847;SDS011;46681;47.696;9.140;2023-04-15T05:43:55;3.30;;;2.97;;
60847;SDS011;46681;47.696;9.140;2023-04-15T05:46:21;3.67;;;3.30;;
60847;SDS011;46681;47.696;9.140;2023-04-15T05:48:46;4.13;;;3.10;;
60847;SDS011;46681;47.696;9.140;2023-04-15T05:51:15;3.60;;;2.80;;
60847;SDS011;46681;47.696;9.140;2023-04-15T05:53:41;3.70;;;3.00;;
60847;SDS011;46681;47.696;9.140;2023-04-15T05:56:08;4.50;;;3.00;;
60847;SDS011;46681;47.696;9.140;2023-04-15T05:58:34;2.87;;;2.63;;
60847;SDS011;46681;47.696;9.140;2023-04-15T06:01:02;3.60;;;2.80;;
60847;SDS011;46681;47.696;9.140;2023-04-15T06:03:28;2.93;;;2.63;;
60847;SDS011;46681;47.696;9.140;2023-04-15T06:06:00;3.97;;;2.90;;
60847;SDS011;46681;47.696;9.140;2023-04-15T06:08:26;3.43;;;3.13;;
60847;SDS011;46681;47.696;9.140;2023-04-15T06:10:54;2.63;;;2.43;;
60847;SDS011;46681;47.696;9.140;2023-04-15T06:13:22;3.97;;;2.77;;
60847;SDS011;46681;47.696;9.140;2023-04-15T06:15:48;4.03;;;2.70;;
60847;SDS011;46681;47.696;9.140;2023-04-15T06:18:15;3.63;;;2.97;;
60847;SDS011;46681;47.696;9.140;2023-04-15T06:20:44;3.60;;;2.90;;
60847;SDS011;46681;47.696;9.140;2023-04-15T06:23:13;2.93;;;2.50;;
60847;SDS011;46681;47.696;9.140;2023-04-15T06:25:38;2.73;;;2.53;;
60847;SDS011;46681;47.696;9.140;2023-04-15T06:28:06;2.73;;;2.50;;
60847;SDS011;46681;47.696;9.140;2023-04-15T06:30:31;3.50;;;2.70;;
60847;SDS011;46681;47.696;9.140;2023-04-15T06:33:00;3.83;;;3.00;;
60847;SDS011;46681;47.696;9.140;2023-04-15T06:35:27;4.13;;;2.90;;
60847;SDS011;46681;47.696;9.140;2023-04-15T06:37:53;3.33;;;2.87;;
60847;SDS011;46681;47.696;9.140;2023-04-15T06:40:19;4.10;;;3.20;;
60847;SDS011;46681;47.696;9.140;2023-04-15T06:42:45;3.13;;;2.50;;
60847;SDS011;46681;47.696;9.140;2023-04-15T06:45:12;3.23;;;2.57;;
60847;SDS011;46681;47.696;9.140;2023-04-15T06:47:38;3.17;;;2.67;;
60847;SDS011;46681;47.696;9.140;2023-04-15T06:50:05;2.70;;;2.50;;
60847;SDS011;46681;47.696;9.140;2023-04-15T06:52:35;3.77;;;2.50;;
60847;SDS011;46681;47.696;9.140;2023-04-15T06:55:02;3.37;;;2.50;;
60847;SDS011;46681;47.696;9.140;2023-04-15T06:57:29;3.23;;;2.60;;
60847;SDS011;46681;47.696;9.140;2023-04-15T06:59:57;3.07;;;2.50;;
60847;SDS011;46681;47.696;9.140;2023-04-15T07:02:33;3.00;;;2.60;;
60847;SDS011;46681;47.696;9.140;2023-04-15T07:05:16;3.37;;;3.07;;
60847;SDS011;46681;47.696;9.140;2023-04-15T07:07:44;3.37;;;2.83;;
60847;SDS011;46681;47.696;9.140;2023-04-15T07:10:16;4.63;;;2.90;;
60847;SDS011;46681;47.696;9.140;2023-04-15T07:12:43;4.53;;;3.00;;
60847;SDS011;46681;47.696;9.140;2023-04-15T07:15:15;3.57;;;2.60;;
60847;SDS011;46681;47.696;9.140;2023-04-15T07:17:46;3.57;;;2.80;;
60847;SDS011;46681;47.696;9.140;2023-04-15T07:20:13;3.27;;;2.73;;
60847;SDS011;46681;47.696;9.140;2023-04-15T07:22:41;2.40;;;2.30;;
60847;SDS011;46681;47.696;9.140;2023-04-15T07:25:10;3.13;;;2.83;;
60847;SDS011;46681;47.696;9.140;2023-04-15T07:27:36;2.77;;;2.30;;
60847;SDS011;46681;47.696;9.140;2023-04-15T07:30:07;3.10;;;2.53;;
60847;SDS011;46681;47.696;9.140;2023-04-15T07:32:35;2.70;;;2.50;;
60847;SDS011;46681;47.696;9.140;2023-04-15T07:35:06;2.67;;;2.47;;
60847;SDS011;46681;47.696;9.140;2023-04-15T07:37:39;5.40;;;2.70;;
60847;SDS011;46681;47.696;9.140;2023-04-15T07:40:05;3.37;;;2.60;;
60847;SDS011;46681;47.696;9.140;2023-04-15T07:42:31;2.60;;;2.20;;
60847;SDS011;46681;47.696;9.140;2023-04-15T07:44:57;2.97;;;2.47;;
60847;SDS011;46681;47.696;9.140;2023-04-15T07:47:27;2.73;;;2.43;;
60847;SDS011;46681;47.696;9.140;2023-04-15T07:49:54;2.67;;;2.43;;
60847;SDS011;46681;47.696;9.140;2023-04-15T07:52:22;5.10;;;2.83;;
60847;SDS011;46681;47.696;9.140;2023-04-15T07:54:47;2.17;;;2.07;;
60847;SDS011;46681;47.696;9.140;2023-04-15T07:57:14;3.70;;;2.43;;
60847;SDS011;46681;47.696;9.140;2023-04-15T07:59:45;2.77;;;2.57;;
60847;SDS011;46681;47.696;9.140;2023-04-15T08:02:15;2.60;;;2.30;;
60847;SDS011;46681;47.696;9.140;2023-04-15T08:04:47;2.50;;;2.33;;
60847;SDS011;46681;47.696;9.140;2023-04-15T08:07:16;2.67;;;2.47;;
60847;SDS011;46681;47.696;9.140;2023-04-15T08:09:44;2.43;;;2.23;;
60847;SDS011;46681;47.696;9.140;2023-04-15T08:12:17;2.60;;;2.40;;
60847;SDS011;46681;47.696;9.140;2023-04-15T08:14:50;3.27;;;2.40;;
60847;SDS011;46681;47.696;9.140;2023-04-15T08:17:38;3.53;;;2.70;;
60847;SDS011;46681;47.696;9.140;2023-04-15T08:20:03;4.27;;;2.50;;
60847;SDS011;46681;47.696;9.140;2023-04-15T08:22:31;3.30;;;2.63;;
60847;SDS011;46681;47.696;9.140;2023-04-15T08:25:06;2.40;;;2.20;;
60847;SDS011;46681;47.696;9.140;2023-04-15T08:27:40;2.17;;;2.07;;
60847;SDS011;46681;47.696;9.140;2023-04-15T08:30:34;2.33;;;2.07;;
60847;SDS011;46681;47.696;9.140;2023-04-15T08:33:00;2.37;;;2.17;;
60847;SDS011;46681;47.696;9.140;2023-04-15T08:35:26;2.50;;;2.03;;
60847;SDS011;46681;47.696;9.140;2023-04-15T08:37:51;2.27;;;2.07;;
60847;SDS011;46681;47.696;9.140;2023-04-15T08:40:23;4.00;;;2.20;;
60847;SDS011;46681;47.696;9.140;2023-04-15T08:42:55;1.90;;;1.80;;
60847;SDS011;46681;47.696;9.140;2023-04-15T08:45:37;2.93;;;2.20;;
60847;SDS011;46681;47.696;9.140;2023-04-15T08:48:04;2.43;;;2.23;;
60847;SDS011;46681;47.696;9.140;2023-04-15T08:50:31;2.33;;;2.10;;
60847;SDS011;46681;47.696;9.140;2023-04-15T08:53:03;3.30;;;2.10;;
60847;SDS011;46681;47.696;9.140;2023-04-15T08:55:31;2.13;;;1.87;;
60847;SDS011;46681;47.696;9.140;2023-04-15T08:58:10;2.30;;;2.10;;
60847;SDS011;46681;47.696;9.140;2023-04-15T09:00:51;3.57;;;2.27;;
60847;SDS011;46681;47.696;9.140;2023-04-15T09:03:23;2.40;;;2.20;;
60847;SDS011;46681;47.696;9.140;2023-04-15T09:06:04;2.00;;;1.73;;
60847;SDS011;46681;47.696;9.140;2023-04-15T09:08:31;2.67;;;2.20;;
60847;SDS011;46681;47.696;9.140;2023-04-15T09:11:04;3.10;;;1.77;;
60847;SDS011;46681;47.696;9.140;2023-04-15T09:13:34;4.10;;;2.30;;
60847;SDS011;46681;47.696;9.140;2023-04-15T09:16:00;2.40;;;2.20;;
60847;SDS011;46681;47.696;9.140;2023-04-15T09:18:33;2.43;;;2.23;;
60847;SDS011;46681;47.696;9.140;2023-04-15T09:21:18;3.50;;;2.20;;
60847;SDS011;46681;47.696;9.140;2023-04-15T09:23:56;2.47;;;2.27;;
60847;SDS011;46681;47.696;9.140;2023-04-15T09:26:38;2.93;;;2.20;;
60847;SDS011;46681;47.696;9.140;2023-04-15T09:29:08;2.13;;;1.83;;
60847;SDS011;46681;47.696;9.140;2023-04-15T09:31:36;2.20;;;2.00;;
60847;SDS011;46681;47.696;9.140;2023-04-15T09:34:06;3.23;;;2.50;;
60847;SDS011;46681;47.696;9.140;2023-04-15T09:39:23;2.53;;;2.33;;
60847;SDS011;46681;47.696;9.140;2023-04-15T09:42:10;4.20;;;2.23;;
60847;SDS011;46681;47.696;9.140;2023-04-15T09:44:50;6.60;;;2.10;;
60847;SDS011;46681;47.696;9.140;2023-04-15T09:47:48;2.93;;;2.30;;
60847;SDS011;46681;47.696;9.140;2023-04-15T09:50:14;2.43;;;2.23;;
60847;SDS011;46681;47.696;9.140;2023-04-15T09:52:45;3.13;;;2.10;;
60847;SDS011;46681;47.696;9.140;2023-04-15T09:55:37;2.30;;;1.90;;
60847;SDS011;46681;47.696;9.140;2023-04-15T09:58:07;2.17;;;1.97;;
60847;SDS011;46681;47.696;9.140;2023-04-15T10:00:47;1.97;;;1.70;;
60847;SDS011;46681;47.696;9.140;2023-04-15T10:03:25;2.37;;;2.07;;
60847;SDS011;46681;47.696;9.140;2023-04-15T10:05:52;7.17;;;2.47;;
60847;SDS011;46681;47.696;9.140;2023-04-15T10:08:32;2.43;;;2.00;;
60847;SDS011;46681;47.696;9.140;2023-04-15T10:11:01;2.70;;;2.13;;
60847;SDS011;46681;47.696;9.140;2023-04-15T10:13:49;2.33;;;1.53;;
60847;SDS011;46681;47.696;9.140;2023-04-15T10:16:25;1.70;;;1.60;;
60847;SDS011;46681;47.696;9.140;2023-04-15T10:19:23;3.30;;;1.97;;
60847;SDS011;46681;47.696;9.140;2023-04-15T10:21:58;2.13;;;1.93;;
60847;SDS011;46681;47.696;9.140;2023-04-15T10:24:36;3.93;;;2.10;;
60847;SDS011;46681;47.696;9.140;2023-04-15T10:27:17;2.17;;;1.90;;
60847;SDS011;46681;47.696;9.140;2023-04-15T10:29:55;2.20;;;2.00;;
60847;SDS011;46681;47.696;9.140;2023-04-15T10:32:51;3.70;;;1.70;;
60847;SDS011;46681;47.696;9.140;2023-04-15T10:35:31;2.27;;;1.60;;
60847;SDS011;46681;47.696;9.140;2023-04-15T10:44:28;3.57;;;2.00;;
60847;SDS011;46681;47.696;9.140;2023-04-15T10:46:56;3.60;;;2.03;;
60847;SDS011;46681;47.696;9.140;2023-04-15T10:49:28;5.07;;;1.80;;
60847;SDS011;46681;47.696;9.140;2023-04-15T10:52:26;1.93;;;1.50;;
60847;SDS011;46681;47.696;9.140;2023-04-15T10:57:42;3.63;;;1.80;;
60847;SDS011;46681;47.696;9.140;2023-04-15T11:00:10;3.77;;;1.80;;
60847;SDS011;46681;47.696;9.140;2023-04-15T11:02:58;3.10;;;1.60;;
60847;SDS011;46681;47.696;9.140;2023-04-15T11:05:50;3.30;;;1.47;;
60847;SDS011;46681;47.696;9.140;2023-04-15T11:14:32;1.90;;;1.60;;
60847;SDS011;46681;47.696;9.140;2023-04-15T11:16:58;1.50;;;1.40;;
60847;SDS011;46681;47.696;9.140;2023-04-15T11:19:39;1.47;;;1.37;;
60847;SDS011;46681;47.696;9.140;2023-04-15T11:22:24;1.70;;;1.30;;
60847;SDS011;46681;47.696;9.140;2023-04-15T11:24:51;1.73;;;1.50;;
60847;SDS011;46681;47.696;9.140;2023-04-15T11:27:38;2.03;;;1.60;;
60847;SDS011;46681;47.696;9.140;2023-04-15T11:30:21;4.53;;;2.03;;
60847;SDS011;46681;47.696;9.140;2023-04-15T11:33:02;2.17;;;1.40;;
60847;SDS011;46681;47.696;9.140;2023-04-15T11:35:35;1.93;;;1.33;;
60847;SDS011;46681;47.696;9.140;2023-04-15T11:38:14;3.23;;;1.60;;
60847;SDS011;46681;47.696;9.140;2023-04-15T11:40:40;1.90;;;1.23;;
60847;SDS011;46681;47.696;9.140;2023-04-15T11:43:17;1.87;;;1.33;;
60847;SDS011;46681;47.696;9.140;2023-04-15T11:46:10;2.47;;;1.50;;
60847;SDS011;46681;47.696;9.140;2023-04-15T11:48:47;3.90;;;1.70;;
60847;SDS011;46681;47.696;9.140;2023-04-15T11:51:18;1.53;;;1.37;;
60847;SDS011;46681;47.696;9.140;2023-04-15T11:54:02;2.00;;;1.50;;
60847;SDS011;46681;47.696;9.140;2023-04-15T11:56:50;5.00;;;1.60;;
60847;SDS011;46681;47.696;9.140;2023-04-15T11:59:40;2.23;;;1.50;;
60847;SDS011;46681;47.696;9.140;2023-04-15T12:02:15;1.70;;;1.60;;
60847;SDS011;46681;47.696;9.140;2023-04-15T12:05:05;2.43;;;1.40;;
60847;SDS011;46681;47.696;9.140;2023-04-15T12:08:01;1.63;;;1.40;;
60847;SDS011;46681;47.696;9.140;2023-04-15T12:10:57;1.77;;;1.40;;
60847;SDS011;46681;47.696;9.140;2023-04-15T12:13:37;1.57;;;1.43;;
60847;SDS011;46681;47.696;9.140;2023-04-15T12:16:18;4.00;;;1.50;;
60847;SDS011;46681;47.696;9.140;2023-04-15T12:18:58;1.67;;;1.57;;
60847;SDS011;46681;47.696;9.140;2023-04-15T12:24:54;1.70;;;1.17;;
60847;SDS011;46681;47.696;9.140;2023-04-15T12:27:32;2.47;;;1.60;;
60847;SDS011;46681;47.696;9.140;2023-04-15T12:30:22;2.10;;;1.33;;
60847;SDS011;46681;47.696;9.140;2023-04-15T12:32:52;3.73;;;1.93;;
60847;SDS011;46681;47.696;9.140;2023-04-15T12:35:28;2.63;;;1.57;;
60847;SDS011;46681;47.696;9.140;2023-04-15T12:37:55;4.90;;;1.53;;
60847;SDS011;46681;47.696;9.140;2023-04-15T12:40:37;3.47;;;1.80;;
60847;SDS011;46681;47.696;9.140;2023-04-15T12:43:05;2.60;;;1.43;;
60847;SDS011;46681;47.696;9.140;2023-04-15T12:45:35;1.47;;;1.30;;
60847;SDS011;46681;47.696;9.140;2023-04-15T12:48:03;2.37;;;1.47;;
60847;SDS011;46681;47.696;9.140;2023-04-15T12:50:28;8.47;;;1.87;;
60847;SDS011;46681;47.696;9.140;2023-04-15T12:52:54;2.03;;;1.53;;
60847;SDS011;46681;47.696;9.140;2023-04-15T12:55:20;2.00;;;1.50;;
60847;SDS011;46681;47.696;9.140;2023-04-15T12:57:46;2.10;;;1.20;;
60847;SDS011;46681;47.696;9.140;2023-04-15T13:00:14;4.77;;;1.77;;
60847;SDS011;46681;47.696;9.140;2023-04-15T13:02:44;2.60;;;1.77;;
60847;SDS011;46681;47.696;9.140;2023-04-15T13:05:11;2.10;;;1.43;;
60847;SDS011;46681;47.696;9.140;2023-04-15T13:07:37;1.53;;;1.23;;
60847;SDS011;46681;47.696;9.140;2023-04-15T13:10:11;3.70;;;1.40;;
60847;SDS011;46681;47.696;9.140;2023-04-15T13:12:37;3.90;;;1.40;;
60847;SDS011;46681;47.696;9.140;2023-04-15T13:15:14;2.83;;;1.47;;
60847;SDS011;46681;47.696;9.140;2023-04-15T13:17:40;4.77;;;1.40;;
60847;SDS011;46681;47.696;9.140;2023-04-15T13:20:08;3.47;;;1.77;;
60847;SDS011;46681;47.696;9.140;2023-04-15T13:22:35;5.37;;;1.93;;
60847;SDS011;46681;47.696;9.140;2023-04-15T13:25:01;1.60;;;1.50;;
60847;SDS011;46681;47.696;9.140;2023-04-15T13:27:39;2.07;;;1.50;;
60847;SDS011;46681;47.696;9.140;2023-04-15T13:30:07;3.43;;;1.50;;
60847;SDS011;46681;47.696;9.140;2023-04-15T13:32:37;2.30;;;1.60;;
60847;SDS011;46681;47.696;9.140;2023-04-15T13:35:11;1.50;;;1.40;;
60847;SDS011;46681;47.696;9.140;2023-04-15T13:37:42;3.43;;;1.50;;
60847;SDS011;46681;47.696;9.140;2023-04-15T13:40:14;3.20;;;1.50;;
60847;SDS011;46681;47.696;9.140;2023-04-15T13:42:41;2.73;;;1.30;;
60847;SDS011;46681;47.696;9.140;2023-04-15T13:45:09;3.60;;;1.77;;
60847;SDS011;46681;47.696;9.140;2023-04-15T13:47:37;2.17;;;1.50;;
60847;SDS011;46681;47.696;9.140;2023-04-15T13:50:16;2.90;;;1.30;;
60847;SDS011;46681;47.696;9.140;2023-04-15T13:52:42;2.17;;;1.40;;
60847;SDS011;46681;47.696;9.140;2023-04-15T13:55:08;3.23;;;1.70;;
60847;SDS011;46681;47.696;9.140;2023-04-15T13:57:34;1.97;;;1.40;;
60847;SDS011;46681;47.696;9.140;2023-04-15T14:00:11;2.27;;;1.20;;
60847;SDS011;46681;47.696;9.140;2023-04-15T14:02:37;2.13;;;1.20;;
60847;SDS011;46681;47.696;9.140;2023-04-15T14:05:04;1.53;;;1.10;;
60847;SDS011;46681;47.696;9.140;2023-04-15T14:07:34;3.23;;;1.50;;
60847;SDS011;46681;47.696;9.140;2023-04-15T14:10:04;2.43;;;1.17;;
60847;SDS011;46681;47.696;9.140;2023-04-15T14:12:34;2.93;;;1.50;;
60847;SDS011;46681;47.696;9.140;2023-04-15T14:14:59;2.67;;;1.43;;
60847;SDS011;46681;47.696;9.140;2023-04-15T14:17:25;1.27;;;1.10;;
60847;SDS011;46681;47.696;9.140;2023-04-15T14:19:52;3.20;;;1.40;;
60847;SDS011;46681;47.696;9.140;2023-04-15T14:22:22;1.30;;;1.20;;
60847;SDS011;46681;47.696;9.140;2023-04-15T14:24:49;3.40;;;1.73;;
60847;SDS011;46681;47.696;9.140;2023-04-15T14:27:20;2.07;;;1.40;;
60847;SDS011;46681;47.696;9.140;2023-04-15T14:29:46;2.80;;;1.30;;
60847;SDS011;46681;47.696;9.140;2023-04-15T14:32:18;2.67;;;1.50;;
60847;SDS011;46681;47.696;9.140;2023-04-15T14:34:43;1.97;;;1.67;;
60847;SDS011;46681;47.696;9.140;2023-04-15T14:37:09;2.03;;;1.30;;
60847;SDS011;46681;47.696;9.140;2023-04-15T14:39:42;3.27;;;1.40;;
60847;SDS011;46681;47.696;9.140;2023-04-15T14:42:10;2.87;;;1.70;;
60847;SDS011;46681;47.696;9.140;2023-04-15T14:44:36;2.83;;;1.40;;
60847;SDS011;46681;47.696;9.140;2023-04-15T14:47:06;2.80;;;1.40;;
60847;SDS011;46681;47.696;9.140;2023-04-15T14:49:32;1.63;;;1.30;;
60847;SDS011;46681;47.696;9.140;2023-04-15T14:51:58;1.33;;;1.00;;
60847;SDS011;46681;47.696;9.140;2023-04-15T14:54:26;3.10;;;1.27;;
60847;SDS011;46681;47.696;9.140;2023-04-15T14:56:53;3.27;;;1.30;;
60847;SDS011;46681;47.696;9.140;2023-04-15T14:59:19;1.63;;;1.27;;
60847;SDS011;46681;47.696;9.140;2023-04-15T15:01:44;1.97;;;1.10;;
60847;SDS011;46681;47.696;9.140;2023-04-15T15:04:10;3.70;;;1.23;;
60847;SDS011;46681;47.696;9.140;2023-04-15T15:06:38;2.10;;;1.27;;
60847;SDS011;46681;47.696;9.140;2023-04-15T15:09:05;1.83;;;1.27;;
60847;SDS011;46681;47.696;9.140;2023-04-15T15:11:32;2.07;;;1.37;;
60847;SDS011;46681;47.696;9.140;2023-04-15T15:14:05;2.27;;;1.37;;
60847;SDS011;46681;47.696;9.140;2023-04-15T15:16:31;3.93;;;1.50;;
60847;SDS011;46681;47.696;9.140;2023-04-15T15:18:59;2.83;;;1.37;;
60847;SDS011;46681;47.696;9.140;2023-04-15T15:21:24;1.57;;;1.07;;
60847;SDS011;46681;47.696;9.140;2023-04-15T15:23:54;1.50;;;1.17;;
60847;SDS011;46681;47.696;9.140;2023-04-15T15:26:27;3.63;;;1.30;;